sensor_id;sensor_type;location;lat;lon;timestamp;P1;durP1;ratioP1;P2;durP2;ratioP2
29908;SDS011;36247;51.952;6.146;2024-01-25T00:02:12;51.67;;;8.45;;
29908;SDS011;36247;51.952;6.146;2024-01-25T00:04:41;45.63;;;8.47;;
29908;SDS011;36247;51.952;6.146;2024-01-25T00:07:12;46.75;;;8.32;;
29908;SDS011;36247;51.952;6.146;2024-01-25T00:09:50;53.75;;;7.03;;
29908;SDS011;36247;51.952;6.146;2024-01-25T00:12:20;46.80;;;8.40;;
29908;SDS011;36247;51.952;6.146;2024-01-25T00:14:52;53.50;;;7.38;;
29908;SDS011;36247;51.952;6.146;2024-01-25T00:17:19;43.85;;;8.18;;
29908;SDS011;36247;51.952;6.146;2024-01-25T00:19:49;50.88;;;9.32;;
29908;SDS011;36247;51.952;6.146;2024-01-25T00:22:24;44.20;;;7.43;;
29908;SDS011;36247;51.952;6.146;2024-01-25T00:24:52;42.88;;;7.78;;
29908;SDS011;36247;51.952;6.146;2024-01-25T00:27:45;45.25;;;7.78;;
29908;SDS011;36247;51.952;6.146;2024-01-25T00:30:15;41.13;;;9.30;;
29908;SDS011;36247;51.952;6.146;2024-01-25T00:32:42;64.93;;;10.02;;
29908;SDS011;36247;51.952;6.146;2024-01-25T00:35:20;38.45;;;8.40;;
29908;SDS011;36247;51.952;6.146;2024-01-25T00:37:53;42.78;;;8.25;;
29908;SDS011;36247;51.952;6.146;2024-01-25T00:40:23;40.17;;;7.30;;
29908;SDS011;36247;51.952;6.146;2024-01-25T00:42:54;47.28;;;7.70;;
29908;SDS011;36247;51.952;6.146;2024-01-25T00:45:21;43.13;;;7.85;;
29908;SDS011;36247;51.952;6.146;2024-01-25T00:48:10;47.40;;;8.57;;
29908;SDS011;36247;51.952;6.146;2024-01-25T00:50:39;45.78;;;8.13;;
29908;SDS011;36247;51.952;6.146;2024-01-25T00:53:06;40.63;;;7.07;;
29908;SDS011;36247;51.952;6.146;2024-01-25T00:55:36;43.60;;;6.93;;
29908;SDS011;36247;51.952;6.146;2024-01-25T00:58:07;47.60;;;8.95;;
29908;SDS011;36247;51.952;6.146;2024-01-25T01:00:43;38.08;;;6.82;;
29908;SDS011;36247;51.952;6.146;2024-01-25T01:03:17;42.10;;;8.57;;
29908;SDS011;36247;51.952;6.146;2024-01-25T01:05:45;44.17;;;6.22;;
29908;SDS011;36247;51.952;6.146;2024-01-25T01:08:13;35.28;;;7.10;;
29908;SDS011;36247;51.952;6.146;2024-01-25T01:10:44;50.17;;;7.95;;
29908;SDS011;36247;51.952;6.146;2024-01-25T01:13:15;43.83;;;8.43;;
29908;SDS011;36247;51.952;6.146;2024-01-25T01:15:44;50.33;;;7.25;;
29908;SDS011;36247;51.952;6.146;2024-01-25T01:18:16;41.97;;;7.63;;
29908;SDS011;36247;51.952;6.146;2024-01-25T01:21:07;43.33;;;6.53;;
29908;SDS011;36247;51.952;6.146;2024-01-25T01:24:12;44.88;;;8.43;;
29908;SDS011;36247;51.952;6.146;2024-01-25T01:26:59;41.15;;;6.72;;
29908;SDS011;36247;51.952;6.146;2024-01-25T01:29:59;40.22;;;7.65;;
29908;SDS011;36247;51.952;6.146;2024-01-25T01:32:34;32.50;;;6.40;;
29908;SDS011;36247;51.952;6.146;2024-01-25T01:35:16;37.00;;;7.20;;
29908;SDS011;36247;51.952;6.146;2024-01-25T01:37:47;33.63;;;6.38;;
29908;SDS011;36247;51.952;6.146;2024-01-25T01:40:19;42.15;;;7.28;;
29908;SDS011;36247;51.952;6.146;2024-01-25T01:43:00;40.47;;;6.85;;
29908;SDS011;36247;51.952;6.146;2024-01-25T01:45:45;54.83;;;7.38;;
29908;SDS011;36247;51.952;6.146;2024-01-25T01:48:16;51.22;;;7.45;;
29908;SDS011;36247;51.952;6.146;2024-01-25T01:50:54;39.38;;;7.15;;
29908;SDS011;36247;51.952;6.146;2024-01-25T01:53:23;41.85;;;8.30;;
29908;SDS011;36247;51.952;6.146;2024-01-25T01:55:52;31.52;;;6.68;;
29908;SDS011;36247;51.952;6.146;2024-01-25T01:58:36;42.05;;;6.97;;
29908;SDS011;36247;51.952;6.146;2024-01-25T02:01:09;40.33;;;6.65;;
29908;SDS011;36247;51.952;6.146;2024-01-25T02:06:11;37.58;;;6.93;;
29908;SDS011;36247;51.952;6.146;2024-01-25T02:08:41;36.85;;;6.93;;
29908;SDS011;36247;51.952;6.146;2024-01-25T02:11:16;40.38;;;7.28;;
29908;SDS011;36247;51.952;6.146;2024-01-25T02:13:54;43.33;;;6.72;;
29908;SDS011;36247;51.952;6.146;2024-01-25T02:16:23;43.53;;;7.95;;
29908;SDS011;36247;51.952;6.146;2024-01-25T02:18:55;46.50;;;8.23;;
29908;SDS011;36247;51.952;6.146;2024-01-25T02:21:23;51.67;;;8.05;;
29908;SDS011;36247;51.952;6.146;2024-01-25T02:23:50;40.88;;;7.93;;
29908;SDS011;36247;51.952;6.146;2024-01-25T02:26:21;66.05;;;7.38;;
29908;SDS011;36247;51.952;6.146;2024-01-25T02:28:50;46.28;;;6.57;;
29908;SDS011;36247;51.952;6.146;2024-01-25T02:31:25;51.15;;;6.78;;
29908;SDS011;36247;51.952;6.146;2024-01-25T02:36:34;53.20;;;7.35;;
29908;SDS011;36247;51.952;6.146;2024-01-25T02:39:09;34.67;;;7.07;;
29908;SDS011;36247;51.952;6.146;2024-01-25T02:41:50;45.67;;;7.18;;
29908;SDS011;36247;51.952;6.146;2024-01-25T02:44:16;51.33;;;7.07;;
29908;SDS011;36247;51.952;6.146;2024-01-25T02:46:42;40.40;;;8.88;;
29908;SDS011;36247;51.952;6.146;2024-01-25T02:49:14;37.80;;;6.90;;
29908;SDS011;36247;51.952;6.146;2024-01-25T02:51:56;40.78;;;7.75;;
29908;SDS011;36247;51.952;6.146;2024-01-25T02:54:35;46.10;;;7.82;;
29908;SDS011;36247;51.952;6.146;2024-01-25T02:57:10;39.22;;;5.63;;
29908;SDS011;36247;51.952;6.146;2024-01-25T02:59:45;34.47;;;7.05;;
29908;SDS011;36247;51.952;6.146;2024-01-25T03:02:14;43.05;;;7.45;;
29908;SDS011;36247;51.952;6.146;2024-01-25T03:04:50;40.92;;;7.53;;
29908;SDS011;36247;51.952;6.146;2024-01-25T03:07:17;44.83;;;8.07;;
29908;SDS011;36247;51.952;6.146;2024-01-25T03:09:43;40.63;;;7.32;;
29908;SDS011;36247;51.952;6.146;2024-01-25T03:12:18;44.63;;;6.72;;
29908;SDS011;36247;51.952;6.146;2024-01-25T03:14:45;45.97;;;8.45;;
29908;SDS011;36247;51.952;6.146;2024-01-25T03:17:13;31.38;;;5.57;;
29908;SDS011;36247;51.952;6.146;2024-01-25T03:19:42;34.05;;;5.72;;
29908;SDS011;36247;51.952;6.146;2024-01-25T03:22:17;32.00;;;6.90;;
29908;SDS011;36247;51.952;6.146;2024-01-25T03:24:47;42.83;;;6.93;;
29908;SDS011;36247;51.952;6.146;2024-01-25T03:27:17;46.15;;;5.57;;
29908;SDS011;36247;51.952;6.146;2024-01-25T03:29:49;39.25;;;7.13;;
29908;SDS011;36247;51.952;6.146;2024-01-25T03:32:26;33.10;;;7.22;;
29908;SDS011;36247;51.952;6.146;2024-01-25T03:34:53;42.67;;;7.40;;
29908;SDS011;36247;51.952;6.146;2024-01-25T03:37:19;43.05;;;8.07;;
29908;SDS011;36247;51.952;6.146;2024-01-25T03:39:50;33.95;;;7.60;;
29908;SDS011;36247;51.952;6.146;2024-01-25T03:42:17;55.95;;;8.32;;
29908;SDS011;36247;51.952;6.146;2024-01-25T03:44:46;38.60;;;6.90;;
29908;SDS011;36247;51.952;6.146;2024-01-25T03:47:13;47.05;;;7.80;;
29908;SDS011;36247;51.952;6.146;2024-01-25T03:49:40;33.88;;;7.25;;
29908;SDS011;36247;51.952;6.146;2024-01-25T03:52:06;54.15;;;7.65;;
29908;SDS011;36247;51.952;6.146;2024-01-25T03:54:36;38.83;;;7.43;;
29908;SDS011;36247;51.952;6.146;2024-01-25T03:57:05;44.83;;;7.90;;
29908;SDS011;36247;51.952;6.146;2024-01-25T03:59:37;31.33;;;6.97;;
29908;SDS011;36247;51.952;6.146;2024-01-25T04:02:10;47.58;;;5.72;;
29908;SDS011;36247;51.952;6.146;2024-01-25T04:04:37;55.42;;;9.38;;
29908;SDS011;36247;51.952;6.146;2024-01-25T04:07:06;37.30;;;6.65;;
29908;SDS011;36247;51.952;6.146;2024-01-25T04:09:35;32.33;;;5.30;;
29908;SDS011;36247;51.952;6.146;2024-01-25T04:12:05;47.22;;;8.13;;
29908;SDS011;36247;51.952;6.146;2024-01-25T04:14:34;40.65;;;6.60;;
29908;SDS011;36247;51.952;6.146;2024-01-25T04:17:00;38.60;;;6.57;;
29908;SDS011;36247;51.952;6.146;2024-01-25T04:19:29;48.95;;;7.60;;
29908;SDS011;36247;51.952;6.146;2024-01-25T04:21:55;44.78;;;7.07;;
29908;SDS011;36247;51.952;6.146;2024-01-25T04:24:22;42.97;;;9.40;;
29908;SDS011;36247;51.952;6.146;2024-01-25T04:26:50;44.83;;;7.30;;
29908;SDS011;36247;51.952;6.146;2024-01-25T04:29:17;47.58;;;10.13;;
29908;SDS011;36247;51.952;6.146;2024-01-25T04:31:49;37.15;;;7.18;;
29908;SDS011;36247;51.952;6.146;2024-01-25T04:34:19;35.88;;;7.05;;
29908;SDS011;36247;51.952;6.146;2024-01-25T04:36:45;47.47;;;8.20;;
29908;SDS011;36247;51.952;6.146;2024-01-25T04:39:12;42.13;;;8.68;;
29908;SDS011;36247;51.952;6.146;2024-01-25T04:41:39;57.95;;;9.05;;
29908;SDS011;36247;51.952;6.146;2024-01-25T04:44:05;37.25;;;6.97;;
29908;SDS011;36247;51.952;6.146;2024-01-25T04:46:31;44.65;;;8.30;;
29908;SDS011;36247;51.952;6.146;2024-01-25T04:49:02;46.00;;;9.15;;
29908;SDS011;36247;51.952;6.146;2024-01-25T04:51:34;33.33;;;6.63;;
29908;SDS011;36247;51.952;6.146;2024-01-25T04:54:00;38.45;;;7.28;;
29908;SDS011;36247;51.952;6.146;2024-01-25T04:56:26;44.42;;;7.22;;
29908;SDS011;36247;51.952;6.146;2024-01-25T04:58:52;36.83;;;6.85;;
29908;SDS011;36247;51.952;6.146;2024-01-25T05:01:18;53.92;;;7.80;;
29908;SDS011;36247;51.952;6.146;2024-01-25T05:03:45;45.38;;;6.95;;
29908;SDS011;36247;51.952;6.146;2024-01-25T05:06:11;47.45;;;7.50;;
29908;SDS011;36247;51.952;6.146;2024-01-25T05:08:38;34.33;;;7.95;;
29908;SDS011;36247;51.952;6.146;2024-01-25T05:11:08;44.47;;;6.95;;
29908;SDS011;36247;51.952;6.146;2024-01-25T05:13:37;48.33;;;8.23;;
29908;SDS011;36247;51.952;6.146;2024-01-25T05:16:06;35.53;;;6.90;;
29908;SDS011;36247;51.952;6.146;2024-01-25T05:18:32;41.95;;;8.45;;
29908;SDS011;36247;51.952;6.146;2024-01-25T05:21:00;47.97;;;7.78;;
29908;SDS011;36247;51.952;6.146;2024-01-25T05:23:30;52.72;;;7.30;;
29908;SDS011;36247;51.952;6.146;2024-01-25T05:25:56;56.42;;;7.90;;
29908;SDS011;36247;51.952;6.146;2024-01-25T05:28:22;45.95;;;8.02;;
29908;SDS011;36247;51.952;6.146;2024-01-25T05:30:55;36.47;;;8.18;;
29908;SDS011;36247;51.952;6.146;2024-01-25T05:33:23;44.53;;;8.43;;
29908;SDS011;36247;51.952;6.146;2024-01-25T05:35:49;36.70;;;7.78;;
29908;SDS011;36247;51.952;6.146;2024-01-25T05:38:15;56.97;;;9.98;;
29908;SDS011;36247;51.952;6.146;2024-01-25T05:40:42;39.20;;;8.50;;
29908;SDS011;36247;51.952;6.146;2024-01-25T05:43:09;50.70;;;9.02;;
29908;SDS011;36247;51.952;6.146;2024-01-25T05:45:35;51.97;;;9.50;;
29908;SDS011;36247;51.952;6.146;2024-01-25T05:48:01;45.42;;;8.05;;
29908;SDS011;36247;51.952;6.146;2024-01-25T05:50:30;40.35;;;8.27;;
29908;SDS011;36247;51.952;6.146;2024-01-25T05:52:57;45.38;;;7.63;;
29908;SDS011;36247;51.952;6.146;2024-01-25T05:55:25;39.50;;;8.40;;
29908;SDS011;36247;51.952;6.146;2024-01-25T05:57:51;59.78;;;10.75;;
29908;SDS011;36247;51.952;6.146;2024-01-25T06:00:17;42.35;;;8.35;;
29908;SDS011;36247;51.952;6.146;2024-01-25T06:02:43;57.38;;;7.82;;
29908;SDS011;36247;51.952;6.146;2024-01-25T06:05:21;39.40;;;7.70;;
29908;SDS011;36247;51.952;6.146;2024-01-25T06:07:46;53.92;;;8.63;;
29908;SDS011;36247;51.952;6.146;2024-01-25T06:10:15;46.95;;;9.20;;
29908;SDS011;36247;51.952;6.146;2024-01-25T06:12:41;46.10;;;7.40;;
29908;SDS011;36247;51.952;6.146;2024-01-25T06:15:07;50.83;;;8.68;;
29908;SDS011;36247;51.952;6.146;2024-01-25T06:17:42;44.40;;;7.80;;
29908;SDS011;36247;51.952;6.146;2024-01-25T06:20:08;64.13;;;9.70;;
29908;SDS011;36247;51.952;6.146;2024-01-25T06:22:36;57.55;;;9.07;;
29908;SDS011;36247;51.952;6.146;2024-01-25T06:25:02;36.88;;;8.90;;
29908;SDS011;36247;51.952;6.146;2024-01-25T06:27:37;45.33;;;8.48;;
29908;SDS011;36247;51.952;6.146;2024-01-25T06:30:06;37.67;;;7.68;;
29908;SDS011;36247;51.952;6.146;2024-01-25T06:32:36;41.80;;;7.63;;
29908;SDS011;36247;51.952;6.146;2024-01-25T06:35:08;55.03;;;8.27;;
29908;SDS011;36247;51.952;6.146;2024-01-25T06:37:35;51.58;;;10.63;;
29908;SDS011;36247;51.952;6.146;2024-01-25T06:40:01;34.60;;;7.45;;
29908;SDS011;36247;51.952;6.146;2024-01-25T06:42:30;46.22;;;8.80;;
29908;SDS011;36247;51.952;6.146;2024-01-25T06:45:02;57.83;;;10.00;;
29908;SDS011;36247;51.952;6.146;2024-01-25T06:47:31;44.88;;;7.68;;
29908;SDS011;36247;51.952;6.146;2024-01-25T06:49:57;50.75;;;9.90;;
29908;SDS011;36247;51.952;6.146;2024-01-25T06:52:26;50.53;;;9.43;;
29908;SDS011;36247;51.952;6.146;2024-01-25T06:54:55;52.40;;;9.15;;
29908;SDS011;36247;51.952;6.146;2024-01-25T06:57:22;56.78;;;10.65;;
29908;SDS011;36247;51.952;6.146;2024-01-25T06:59:50;57.55;;;8.55;;
29908;SDS011;36247;51.952;6.146;2024-01-25T07:02:16;46.47;;;8.25;;
29908;SDS011;36247;51.952;6.146;2024-01-25T07:04:51;57.25;;;9.18;;
29908;SDS011;36247;51.952;6.146;2024-01-25T07:07:19;45.20;;;8.80;;
29908;SDS011;36247;51.952;6.146;2024-01-25T07:09:45;52.13;;;8.85;;
29908;SDS011;36247;51.952;6.146;2024-01-25T07:12:14;40.83;;;9.45;;
29908;SDS011;36247;51.952;6.146;2024-01-25T07:14:41;56.45;;;9.63;;
29908;SDS011;36247;51.952;6.146;2024-01-25T07:17:13;35.40;;;6.47;;
29908;SDS011;36247;51.952;6.146;2024-01-25T07:19:47;48.03;;;9.68;;
29908;SDS011;36247;51.952;6.146;2024-01-25T07:22:18;33.67;;;5.57;;
29908;SDS011;36247;51.952;6.146;2024-01-25T07:24:49;48.95;;;9.15;;
29908;SDS011;36247;51.952;6.146;2024-01-25T07:27:16;56.95;;;10.32;;
29908;SDS011;36247;51.952;6.146;2024-01-25T07:29:43;52.72;;;9.80;;
29908;SDS011;36247;51.952;6.146;2024-01-25T07:32:24;40.78;;;8.77;;
29908;SDS011;36247;51.952;6.146;2024-01-25T07:35:00;56.55;;;9.32;;
29908;SDS011;36247;51.952;6.146;2024-01-25T07:37:29;49.45;;;9.60;;
29908;SDS011;36247;51.952;6.146;2024-01-25T07:39:56;49.03;;;8.52;;
29908;SDS011;36247;51.952;6.146;2024-01-25T07:42:22;43.83;;;9.10;;
29908;SDS011;36247;51.952;6.146;2024-01-25T07:45:08;38.72;;;9.60;;
29908;SDS011;36247;51.952;6.146;2024-01-25T07:47:35;49.53;;;9.85;;
29908;SDS011;36247;51.952;6.146;2024-01-25T07:50:02;50.40;;;8.85;;
29908;SDS011;36247;51.952;6.146;2024-01-25T07:52:34;45.00;;;8.43;;
29908;SDS011;36247;51.952;6.146;2024-01-25T07:55:09;42.22;;;8.30;;
29908;SDS011;36247;51.952;6.146;2024-01-25T07:57:36;45.60;;;9.55;;
29908;SDS011;36247;51.952;6.146;2024-01-25T08:00:18;53.85;;;9.38;;
29908;SDS011;36247;51.952;6.146;2024-01-25T08:02:48;46.50;;;9.48;;
29908;SDS011;36247;51.952;6.146;2024-01-25T08:05:17;43.08;;;8.65;;
29908;SDS011;36247;51.952;6.146;2024-01-25T08:07:44;50.00;;;8.80;;
29908;SDS011;36247;51.952;6.146;2024-01-25T08:10:16;35.90;;;9.23;;
29908;SDS011;36247;51.952;6.146;2024-01-25T08:12:49;51.13;;;9.63;;
29908;SDS011;36247;51.952;6.146;2024-01-25T08:15:16;51.67;;;9.65;;
29908;SDS011;36247;51.952;6.146;2024-01-25T08:17:42;42.70;;;11.18;;
29908;SDS011;36247;51.952;6.146;2024-01-25T08:20:18;43.63;;;9.50;;
29908;SDS011;36247;51.952;6.146;2024-01-25T08:22:44;44.08;;;10.32;;
29908;SDS011;36247;51.952;6.146;2024-01-25T08:25:14;41.45;;;9.43;;
29908;SDS011;36247;51.952;6.146;2024-01-25T08:27:42;48.28;;;9.73;;
29908;SDS011;36247;51.952;6.146;2024-01-25T08:30:18;28.52;;;8.65;;
29908;SDS011;36247;51.952;6.146;2024-01-25T08:32:45;39.30;;;9.48;;
29908;SDS011;36247;51.952;6.146;2024-01-25T08:35:16;36.97;;;9.18;;
29908;SDS011;36247;51.952;6.146;2024-01-25T08:37:42;53.95;;;11.27;;
29908;SDS011;36247;51.952;6.146;2024-01-25T08:40:09;50.53;;;10.30;;
29908;SDS011;36247;51.952;6.146;2024-01-25T08:42:36;41.75;;;9.13;;
29908;SDS011;36247;51.952;6.146;2024-01-25T08:45:06;42.40;;;9.30;;
29908;SDS011;36247;51.952;6.146;2024-01-25T08:47:35;47.00;;;8.80;;
29908;SDS011;36247;51.952;6.146;2024-01-25T08:50:02;43.00;;;10.70;;
29908;SDS011;36247;51.952;6.146;2024-01-25T08:52:38;48.60;;;10.32;;
29908;SDS011;36247;51.952;6.146;2024-01-25T08:55:06;45.47;;;9.50;;
29908;SDS011;36247;51.952;6.146;2024-01-25T08:57:39;54.70;;;10.52;;
29908;SDS011;36247;51.952;6.146;2024-01-25T09:00:06;53.08;;;11.00;;
29908;SDS011;36247;51.952;6.146;2024-01-25T09:02:36;42.33;;;8.73;;
29908;SDS011;36247;51.952;6.146;2024-01-25T09:05:05;38.15;;;9.45;;
29908;SDS011;36247;51.952;6.146;2024-01-25T09:07:31;43.85;;;10.55;;
29908;SDS011;36247;51.952;6.146;2024-01-25T09:09:57;54.65;;;9.68;;
29908;SDS011;36247;51.952;6.146;2024-01-25T09:12:24;50.55;;;10.20;;
29908;SDS011;36247;51.952;6.146;2024-01-25T09:14:50;64.20;;;11.68;;
29908;SDS011;36247;51.952;6.146;2024-01-25T09:17:16;51.47;;;10.15;;
29908;SDS011;36247;51.952;6.146;2024-01-25T09:19:47;45.58;;;9.88;;
29908;SDS011;36247;51.952;6.146;2024-01-25T09:22:15;50.30;;;9.65;;
29908;SDS011;36247;51.952;6.146;2024-01-25T09:24:43;41.88;;;9.73;;
29908;SDS011;36247;51.952;6.146;2024-01-25T09:27:09;45.38;;;10.38;;
29908;SDS011;36247;51.952;6.146;2024-01-25T09:29:36;56.33;;;11.48;;
29908;SDS011;36247;51.952;6.146;2024-01-25T09:32:07;45.58;;;9.57;;
29908;SDS011;36247;51.952;6.146;2024-01-25T09:34:37;46.70;;;8.88;;
29908;SDS011;36247;51.952;6.146;2024-01-25T09:37:07;47.85;;;10.55;;
29908;SDS011;36247;51.952;6.146;2024-01-25T09:39:36;56.90;;;10.82;;
29908;SDS011;36247;51.952;6.146;2024-01-25T09:42:05;43.08;;;8.73;;
29908;SDS011;36247;51.952;6.146;2024-01-25T09:44:35;44.88;;;8.82;;
29908;SDS011;36247;51.952;6.146;2024-01-25T09:47:05;44.65;;;10.32;;
29908;SDS011;36247;51.952;6.146;2024-01-25T09:49:35;46.20;;;11.05;;
29908;SDS011;36247;51.952;6.146;2024-01-25T09:52:02;42.60;;;11.23;;
29908;SDS011;36247;51.952;6.146;2024-01-25T09:54:37;59.70;;;10.77;;
29908;SDS011;36247;51.952;6.146;2024-01-25T09:57:14;51.88;;;10.98;;
29908;SDS011;36247;51.952;6.146;2024-01-25T09:59:44;49.95;;;10.45;;
29908;SDS011;36247;51.952;6.146;2024-01-25T10:02:10;50.88;;;12.55;;
29908;SDS011;36247;51.952;6.146;2024-01-25T10:04:37;50.10;;;10.50;;
29908;SDS011;36247;51.952;6.146;2024-01-25T10:07:05;48.40;;;11.50;;
29908;SDS011;36247;51.952;6.146;2024-01-25T10:09:40;44.47;;;10.48;;
29908;SDS011;36247;51.952;6.146;2024-01-25T10:12:08;46.37;;;10.80;;
29908;SDS011;36247;51.952;6.146;2024-01-25T10:14:35;51.70;;;10.40;;
29908;SDS011;36247;51.952;6.146;2024-01-25T10:17:07;52.63;;;9.93;;
29908;SDS011;36247;51.952;6.146;2024-01-25T10:19:36;46.67;;;11.13;;
29908;SDS011;36247;51.952;6.146;2024-01-25T10:22:06;48.35;;;10.20;;
29908;SDS011;36247;51.952;6.146;2024-01-25T10:24:38;49.38;;;11.05;;
29908;SDS011;36247;51.952;6.146;2024-01-25T10:27:07;38.30;;;10.20;;
29908;SDS011;36247;51.952;6.146;2024-01-25T10:29:34;53.92;;;10.05;;
29908;SDS011;36247;51.952;6.146;2024-01-25T10:32:02;55.40;;;10.75;;
29908;SDS011;36247;51.952;6.146;2024-01-25T10:34:38;44.45;;;10.80;;
29908;SDS011;36247;51.952;6.146;2024-01-25T10:37:07;41.72;;;9.95;;
29908;SDS011;36247;51.952;6.146;2024-01-25T10:39:37;45.78;;;10.07;;
29908;SDS011;36247;51.952;6.146;2024-01-25T10:42:07;45.70;;;10.18;;
29908;SDS011;36247;51.952;6.146;2024-01-25T10:44:39;45.33;;;11.27;;
29908;SDS011;36247;51.952;6.146;2024-01-25T10:47:18;54.55;;;11.27;;
29908;SDS011;36247;51.952;6.146;2024-01-25T10:49:49;48.65;;;11.05;;
29908;SDS011;36247;51.952;6.146;2024-01-25T10:52:26;45.30;;;10.43;;
29908;SDS011;36247;51.952;6.146;2024-01-25T10:55:08;40.63;;;9.40;;
29908;SDS011;36247;51.952;6.146;2024-01-25T11:00:10;44.05;;;11.85;;
29908;SDS011;36247;51.952;6.146;2024-01-25T11:02:50;40.28;;;10.77;;
29908;SDS011;36247;51.952;6.146;2024-01-25T11:05:18;49.78;;;11.02;;
29908;SDS011;36247;51.952;6.146;2024-01-25T11:07:58;44.13;;;10.65;;
29908;SDS011;36247;51.952;6.146;2024-01-25T11:10:25;50.38;;;10.85;;
29908;SDS011;36247;51.952;6.146;2024-01-25T11:12:59;46.55;;;11.70;;
29908;SDS011;36247;51.952;6.146;2024-01-25T11:15:36;41.00;;;10.50;;
29908;SDS011;36247;51.952;6.146;2024-01-25T11:18:07;43.80;;;10.80;;
29908;SDS011;36247;51.952;6.146;2024-01-25T11:20:35;38.95;;;11.43;;
29908;SDS011;36247;51.952;6.146;2024-01-25T11:23:06;47.87;;;12.80;;
29908;SDS011;36247;51.952;6.146;2024-01-25T11:25:40;45.35;;;11.48;;
29908;SDS011;36247;51.952;6.146;2024-01-25T11:28:20;42.35;;;10.88;;
29908;SDS011;36247;51.952;6.146;2024-01-25T11:30:55;48.33;;;13.07;;
29908;SDS011;36247;51.952;6.146;2024-01-25T11:33:25;49.95;;;13.77;;
29908;SDS011;36247;51.952;6.146;2024-01-25T11:36:09;49.80;;;14.50;;
29908;SDS011;36247;51.952;6.146;2024-01-25T11:38:37;45.08;;;11.18;;
29908;SDS011;36247;51.952;6.146;2024-01-25T11:41:09;31.90;;;9.55;;
29908;SDS011;36247;51.952;6.146;2024-01-25T11:43:42;48.35;;;11.93;;
29908;SDS011;36247;51.952;6.146;2024-01-25T11:46:18;44.13;;;13.10;;
29908;SDS011;36247;51.952;6.146;2024-01-25T11:48:53;47.50;;;12.95;;
29908;SDS011;36247;51.952;6.146;2024-01-25T11:51:26;46.80;;;12.45;;
29908;SDS011;36247;51.952;6.146;2024-01-25T11:53:55;47.90;;;13.27;;
29908;SDS011;36247;51.952;6.146;2024-01-25T11:56:32;44.63;;;13.02;;
29908;SDS011;36247;51.952;6.146;2024-01-25T12:01:40;47.92;;;11.73;;
29908;SDS011;36247;51.952;6.146;2024-01-25T12:04:07;42.20;;;13.18;;
29908;SDS011;36247;51.952;6.146;2024-01-25T12:06:45;53.03;;;12.05;;
29908;SDS011;36247;51.952;6.146;2024-01-25T12:09:15;38.70;;;11.77;;
29908;SDS011;36247;51.952;6.146;2024-01-25T12:11:42;40.85;;;11.65;;
29908;SDS011;36247;51.952;6.146;2024-01-25T12:14:27;44.35;;;11.25;;
29908;SDS011;36247;51.952;6.146;2024-01-25T12:16:57;46.60;;;11.52;;
29908;SDS011;36247;51.952;6.146;2024-01-25T12:19:37;44.83;;;13.52;;
29908;SDS011;36247;51.952;6.146;2024-01-25T12:22:07;47.60;;;11.32;;
29908;SDS011;36247;51.952;6.146;2024-01-25T12:24:47;49.95;;;11.60;;
29908;SDS011;36247;51.952;6.146;2024-01-25T12:27:22;48.28;;;12.60;;
29908;SDS011;36247;51.952;6.146;2024-01-25T12:29:56;48.80;;;11.65;;
29908;SDS011;36247;51.952;6.146;2024-01-25T12:32:26;42.08;;;11.15;;
29908;SDS011;36247;51.952;6.146;2024-01-25T12:35:15;50.72;;;11.20;;
29908;SDS011;36247;51.952;6.146;2024-01-25T12:37:45;47.25;;;12.23;;
29908;SDS011;36247;51.952;6.146;2024-01-25T12:40:23;42.78;;;11.63;;
29908;SDS011;36247;51.952;6.146;2024-01-25T12:42:49;50.95;;;11.50;;
29908;SDS011;36247;51.952;6.146;2024-01-25T12:45:16;57.30;;;11.63;;
29908;SDS011;36247;51.952;6.146;2024-01-25T12:47:43;40.03;;;10.45;;
29908;SDS011;36247;51.952;6.146;2024-01-25T12:50:10;39.60;;;10.10;;
29908;SDS011;36247;51.952;6.146;2024-01-25T12:52:39;47.53;;;12.57;;
29908;SDS011;36247;51.952;6.146;2024-01-25T12:55:08;58.60;;;11.95;;
29908;SDS011;36247;51.952;6.146;2024-01-25T12:57:47;59.30;;;14.40;;
29908;SDS011;36247;51.952;6.146;2024-01-25T13:00:16;40.63;;;11.07;;
29908;SDS011;36247;51.952;6.146;2024-01-25T13:02:49;50.47;;;11.60;;
29908;SDS011;36247;51.952;6.146;2024-01-25T13:05:20;43.47;;;10.95;;
29908;SDS011;36247;51.952;6.146;2024-01-25T13:07:49;46.47;;;12.15;;
29908;SDS011;36247;51.952;6.146;2024-01-25T13:10:22;54.58;;;12.98;;
29908;SDS011;36247;51.952;6.146;2024-01-25T13:12:51;41.35;;;13.27;;
29908;SDS011;36247;51.952;6.146;2024-01-25T13:15:21;45.70;;;11.32;;
29908;SDS011;36247;51.952;6.146;2024-01-25T13:17:51;46.03;;;11.43;;
29908;SDS011;36247;51.952;6.146;2024-01-25T13:20:20;44.93;;;10.93;;
29908;SDS011;36247;51.952;6.146;2024-01-25T13:22:47;47.92;;;11.90;;
29908;SDS011;36247;51.952;6.146;2024-01-25T13:25:14;40.60;;;11.52;;
29908;SDS011;36247;51.952;6.146;2024-01-25T13:27:49;55.40;;;11.55;;
29908;SDS011;36247;51.952;6.146;2024-01-25T13:30:19;41.63;;;11.07;;
29908;SDS011;36247;51.952;6.146;2024-01-25T13:32:49;45.45;;;11.43;;
29908;SDS011;36247;51.952;6.146;2024-01-25T13:35:18;45.97;;;12.27;;
29908;SDS011;36247;51.952;6.146;2024-01-25T13:37:44;51.22;;;11.40;;
29908;SDS011;36247;51.952;6.146;2024-01-25T13:40:12;43.10;;;11.80;;
29908;SDS011;36247;51.952;6.146;2024-01-25T13:42:41;41.83;;;11.98;;
29908;SDS011;36247;51.952;6.146;2024-01-25T13:45:07;46.20;;;11.63;;
29908;SDS011;36247;51.952;6.146;2024-01-25T13:47:40;40.70;;;11.68;;
29908;SDS011;36247;51.952;6.146;2024-01-25T13:50:11;51.70;;;13.20;;
29908;SDS011;36247;51.952;6.146;2024-01-25T13:52:37;39.63;;;11.45;;
29908;SDS011;36247;51.952;6.146;2024-01-25T13:55:07;50.80;;;11.90;;
29908;SDS011;36247;51.952;6.146;2024-01-25T13:57:43;53.30;;;13.30;;
29908;SDS011;36247;51.952;6.146;2024-01-25T14:00:14;47.22;;;13.23;;
29908;SDS011;36247;51.952;6.146;2024-01-25T14:02:44;58.20;;;14.52;;
29908;SDS011;36247;51.952;6.146;2024-01-25T14:05:11;47.67;;;13.88;;
29908;SDS011;36247;51.952;6.146;2024-01-25T14:07:38;58.63;;;16.90;;
29908;SDS011;36247;51.952;6.146;2024-01-25T14:10:08;50.53;;;15.35;;
29908;SDS011;36247;51.952;6.146;2024-01-25T14:12:36;57.33;;;18.25;;
29908;SDS011;36247;51.952;6.146;2024-01-25T14:15:09;52.97;;;16.33;;
29908;SDS011;36247;51.952;6.146;2024-01-25T14:17:38;45.38;;;17.17;;
29908;SDS011;36247;51.952;6.146;2024-01-25T14:20:10;62.67;;;19.55;;
29908;SDS011;36247;51.952;6.146;2024-01-25T14:22:38;54.45;;;18.73;;
29908;SDS011;36247;51.952;6.146;2024-01-25T14:25:06;57.60;;;18.25;;
29908;SDS011;36247;51.952;6.146;2024-01-25T14:27:36;60.33;;;21.25;;
29908;SDS011;36247;51.952;6.146;2024-01-25T14:30:08;61.38;;;20.13;;
29908;SDS011;36247;51.952;6.146;2024-01-25T14:32:37;54.17;;;21.05;;
29908;SDS011;36247;51.952;6.146;2024-01-25T14:35:12;54.25;;;19.80;;
29908;SDS011;36247;51.952;6.146;2024-01-25T14:37:39;56.25;;;21.98;;
29908;SDS011;36247;51.952;6.146;2024-01-25T14:40:16;68.60;;;22.77;;
29908;SDS011;36247;51.952;6.146;2024-01-25T14:42:44;65.60;;;22.08;;
29908;SDS011;36247;51.952;6.146;2024-01-25T14:45:14;63.85;;;22.35;;
29908;SDS011;36247;51.952;6.146;2024-01-25T14:47:40;61.35;;;21.25;;
29908;SDS011;36247;51.952;6.146;2024-01-25T14:50:07;61.38;;;24.35;;
29908;SDS011;36247;51.952;6.146;2024-01-25T14:52:36;66.65;;;23.70;;
29908;SDS011;36247;51.952;6.146;2024-01-25T14:55:02;63.95;;;23.27;;
29908;SDS011;36247;51.952;6.146;2024-01-25T14:57:37;62.77;;;25.40;;
29908;SDS011;36247;51.952;6.146;2024-01-25T15:00:07;66.15;;;23.52;;